sensor_id;sensor_type;location;lat;lon;timestamp;P1;durP1;ratioP1;P2;durP2;ratioP2
11984;SDS011;6052;53.246;10.368;2024-03-17T00:01:38;6.37;;;2.07;;
11984;SDS011;6052;53.246;10.368;2024-03-17T00:04:07;7.73;;;1.83;;
11984;SDS011;6052;53.246;10.368;2024-03-17T00:06:35;6.27;;;1.90;;
11984;SDS011;6052;53.246;10.368;2024-03-17T00:09:04;9.77;;;1.83;;
11984;SDS011;6052;53.246;10.368;2024-03-17T00:11:31;6.47;;;1.70;;
11984;SDS011;6052;53.246;10.368;2024-03-17T00:14:00;11.13;;;1.93;;
11984;SDS011;6052;53.246;10.368;2024-03-17T00:16:27;5.37;;;2.17;;
11984;SDS011;6052;53.246;10.368;2024-03-17T00:18:55;7.93;;;1.87;;
11984;SDS011;6052;53.246;10.368;2024-03-17T00:21:21;8.30;;;1.83;;
11984;SDS011;6052;53.246;10.368;2024-03-17T00:23:54;7.10;;;2.30;;
11984;SDS011;6052;53.246;10.368;2024-03-17T00:26:20;6.37;;;2.03;;
11984;SDS011;6052;53.246;10.368;2024-03-17T00:28:49;6.90;;;1.77;;
11984;SDS011;6052;53.246;10.368;2024-03-17T00:31:16;6.67;;;1.97;;
11984;SDS011;6052;53.246;10.368;2024-03-17T00:33:45;10.47;;;2.10;;
11984;SDS011;6052;53.246;10.368;2024-03-17T00:36:12;11.50;;;2.53;;
11984;SDS011;6052;53.246;10.368;2024-03-17T00:38:40;12.03;;;2.20;;
11984;SDS011;6052;53.246;10.368;2024-03-17T00:41:09;9.53;;;2.03;;
11984;SDS011;6052;53.246;10.368;2024-03-17T00:43:38;9.97;;;1.93;;
11984;SDS011;6052;53.246;10.368;2024-03-17T00:46:04;10.23;;;1.80;;
11984;SDS011;6052;53.246;10.368;2024-03-17T00:48:33;10.27;;;2.47;;
11984;SDS011;6052;53.246;10.368;2024-03-17T00:50:59;8.60;;;2.10;;
11984;SDS011;6052;53.246;10.368;2024-03-17T00:53:28;4.67;;;1.50;;
11984;SDS011;6052;53.246;10.368;2024-03-17T00:55:54;3.13;;;1.47;;
11984;SDS011;6052;53.246;10.368;2024-03-17T00:58:28;6.67;;;1.80;;
11984;SDS011;6052;53.246;10.368;2024-03-17T01:00:54;6.63;;;2.00;;
11984;SDS011;6052;53.246;10.368;2024-03-17T01:03:23;3.90;;;1.57;;
11984;SDS011;6052;53.246;10.368;2024-03-17T01:05:49;7.60;;;1.77;;
11984;SDS011;6052;53.246;10.368;2024-03-17T01:08:18;11.77;;;2.53;;
11984;SDS011;6052;53.246;10.368;2024-03-17T01:10:48;9.90;;;1.87;;
11984;SDS011;6052;53.246;10.368;2024-03-17T01:13:15;10.27;;;2.00;;
11984;SDS011;6052;53.246;10.368;2024-03-17T01:15:50;11.90;;;2.30;;
11984;SDS011;6052;53.246;10.368;2024-03-17T01:18:17;6.60;;;1.47;;
11984;SDS011;6052;53.246;10.368;2024-03-17T01:20:46;6.23;;;1.80;;
11984;SDS011;6052;53.246;10.368;2024-03-17T01:23:12;6.00;;;1.80;;
11984;SDS011;6052;53.246;10.368;2024-03-17T01:25:41;8.97;;;1.70;;
11984;SDS011;6052;53.246;10.368;2024-03-17T01:28:07;7.90;;;1.60;;
11984;SDS011;6052;53.246;10.368;2024-03-17T01:30:37;6.40;;;2.20;;
11984;SDS011;6052;53.246;10.368;2024-03-17T01:33:06;4.40;;;1.27;;
11984;SDS011;6052;53.246;10.368;2024-03-17T01:35:36;7.90;;;1.60;;
11984;SDS011;6052;53.246;10.368;2024-03-17T01:38:02;6.77;;;1.67;;
11984;SDS011;6052;53.246;10.368;2024-03-17T01:40:31;4.60;;;1.60;;
11984;SDS011;6052;53.246;10.368;2024-03-17T01:42:57;9.17;;;2.27;;
11984;SDS011;6052;53.246;10.368;2024-03-17T01:45:26;7.27;;;1.90;;
11984;SDS011;6052;53.246;10.368;2024-03-17T01:47:54;7.33;;;1.97;;
11984;SDS011;6052;53.246;10.368;2024-03-17T01:50:26;5.30;;;1.63;;
11984;SDS011;6052;53.246;10.368;2024-03-17T01:52:58;6.50;;;1.50;;
11984;SDS011;6052;53.246;10.368;2024-03-17T01:55:30;8.27;;;1.70;;
11984;SDS011;6052;53.246;10.368;2024-03-17T01:57:56;9.33;;;2.57;;
11984;SDS011;6052;53.246;10.368;2024-03-17T02:00:26;5.57;;;1.83;;
11984;SDS011;6052;53.246;10.368;2024-03-17T02:02:52;10.47;;;2.13;;
11984;SDS011;6052;53.246;10.368;2024-03-17T02:05:21;10.10;;;2.30;;
11984;SDS011;6052;53.246;10.368;2024-03-17T02:07:50;4.33;;;1.60;;
11984;SDS011;6052;53.246;10.368;2024-03-17T02:10:18;8.10;;;2.23;;
11984;SDS011;6052;53.246;10.368;2024-03-17T02:12:44;9.47;;;1.97;;
11984;SDS011;6052;53.246;10.368;2024-03-17T02:15:13;6.73;;;2.13;;
11984;SDS011;6052;53.246;10.368;2024-03-17T02:17:39;4.30;;;1.50;;
11984;SDS011;6052;53.246;10.368;2024-03-17T02:20:09;5.93;;;1.67;;
11984;SDS011;6052;53.246;10.368;2024-03-17T02:22:39;6.33;;;1.50;;
11984;SDS011;6052;53.246;10.368;2024-03-17T02:25:08;6.67;;;1.60;;
11984;SDS011;6052;53.246;10.368;2024-03-17T02:27:34;7.60;;;1.67;;
11984;SDS011;6052;53.246;10.368;2024-03-17T02:30:04;10.03;;;2.03;;
11984;SDS011;6052;53.246;10.368;2024-03-17T02:32:33;4.67;;;1.93;;
11984;SDS011;6052;53.246;10.368;2024-03-17T02:35:03;9.27;;;1.50;;
11984;SDS011;6052;53.246;10.368;2024-03-17T02:37:30;7.80;;;2.27;;
11984;SDS011;6052;53.246;10.368;2024-03-17T02:40:02;7.80;;;1.63;;
11984;SDS011;6052;53.246;10.368;2024-03-17T02:42:30;8.00;;;2.10;;
11984;SDS011;6052;53.246;10.368;2024-03-17T02:44:59;8.43;;;2.03;;
11984;SDS011;6052;53.246;10.368;2024-03-17T02:47:28;5.93;;;1.77;;
11984;SDS011;6052;53.246;10.368;2024-03-17T02:49:57;11.37;;;2.07;;
11984;SDS011;6052;53.246;10.368;2024-03-17T02:52:25;6.93;;;2.03;;
11984;SDS011;6052;53.246;10.368;2024-03-17T02:54:54;8.47;;;2.17;;
11984;SDS011;6052;53.246;10.368;2024-03-17T02:57:26;6.07;;;1.73;;
11984;SDS011;6052;53.246;10.368;2024-03-17T02:59:55;6.00;;;1.70;;
11984;SDS011;6052;53.246;10.368;2024-03-17T03:02:24;4.93;;;1.80;;
11984;SDS011;6052;53.246;10.368;2024-03-17T03:04:53;6.73;;;1.70;;
11984;SDS011;6052;53.246;10.368;2024-03-17T03:07:22;7.37;;;2.10;;
11984;SDS011;6052;53.246;10.368;2024-03-17T03:09:50;3.57;;;1.77;;
11984;SDS011;6052;53.246;10.368;2024-03-17T03:12:19;6.37;;;1.40;;
11984;SDS011;6052;53.246;10.368;2024-03-17T03:14:51;8.83;;;1.30;;
11984;SDS011;6052;53.246;10.368;2024-03-17T03:17:19;5.00;;;1.70;;
11984;SDS011;6052;53.246;10.368;2024-03-17T03:19:49;5.17;;;1.80;;
11984;SDS011;6052;53.246;10.368;2024-03-17T03:22:18;9.30;;;1.67;;
11984;SDS011;6052;53.246;10.368;2024-03-17T03:24:47;8.47;;;1.90;;
11984;SDS011;6052;53.246;10.368;2024-03-17T03:27:16;12.50;;;1.77;;
11984;SDS011;6052;53.246;10.368;2024-03-17T03:29:44;6.67;;;1.90;;
11984;SDS011;6052;53.246;10.368;2024-03-17T03:32:16;8.57;;;2.40;;
11984;SDS011;6052;53.246;10.368;2024-03-17T03:34:45;6.63;;;1.80;;
11984;SDS011;6052;53.246;10.368;2024-03-17T03:37:14;6.90;;;1.90;;
11984;SDS011;6052;53.246;10.368;2024-03-17T03:39:43;5.80;;;1.60;;
11984;SDS011;6052;53.246;10.368;2024-03-17T03:42:11;9.73;;;1.87;;
11984;SDS011;6052;53.246;10.368;2024-03-17T03:44:40;9.03;;;1.80;;
11984;SDS011;6052;53.246;10.368;2024-03-17T03:47:09;5.63;;;2.17;;
11984;SDS011;6052;53.246;10.368;2024-03-17T03:49:41;8.93;;;2.00;;
11984;SDS011;6052;53.246;10.368;2024-03-17T03:52:10;7.93;;;1.87;;
11984;SDS011;6052;53.246;10.368;2024-03-17T03:54:40;7.80;;;2.10;;
11984;SDS011;6052;53.246;10.368;2024-03-17T03:57:08;4.17;;;1.53;;
11984;SDS011;6052;53.246;10.368;2024-03-17T03:59:37;5.97;;;1.53;;
11984;SDS011;6052;53.246;10.368;2024-03-17T04:02:06;9.37;;;2.30;;
11984;SDS011;6052;53.246;10.368;2024-03-17T04:04:35;8.90;;;2.00;;
11984;SDS011;6052;53.246;10.368;2024-03-17T04:07:06;4.60;;;1.90;;
11984;SDS011;6052;53.246;10.368;2024-03-17T04:09:35;4.17;;;1.60;;
11984;SDS011;6052;53.246;10.368;2024-03-17T04:12:04;3.33;;;1.60;;
11984;SDS011;6052;53.246;10.368;2024-03-17T04:14:33;5.30;;;1.60;;
11984;SDS011;6052;53.246;10.368;2024-03-17T04:17:02;12.27;;;2.10;;
11984;SDS011;6052;53.246;10.368;2024-03-17T04:19:31;4.53;;;1.30;;
11984;SDS011;6052;53.246;10.368;2024-03-17T04:22:01;6.57;;;2.50;;
11984;SDS011;6052;53.246;10.368;2024-03-17T04:24:32;8.27;;;2.13;;
11984;SDS011;6052;53.246;10.368;2024-03-17T04:27:01;6.50;;;1.83;;
11984;SDS011;6052;53.246;10.368;2024-03-17T04:29:30;6.27;;;1.73;;
11984;SDS011;6052;53.246;10.368;2024-03-17T04:31:58;7.47;;;1.80;;
11984;SDS011;6052;53.246;10.368;2024-03-17T04:34:27;9.23;;;1.63;;
11984;SDS011;6052;53.246;10.368;2024-03-17T04:36:56;9.50;;;2.10;;
11984;SDS011;6052;53.246;10.368;2024-03-17T04:39:25;5.00;;;1.70;;
11984;SDS011;6052;53.246;10.368;2024-03-17T04:41:57;7.63;;;2.10;;
11984;SDS011;6052;53.246;10.368;2024-03-17T04:44:25;2.50;;;1.40;;
11984;SDS011;6052;53.246;10.368;2024-03-17T04:46:54;4.80;;;2.13;;
11984;SDS011;6052;53.246;10.368;2024-03-17T04:49:23;7.10;;;1.60;;
11984;SDS011;6052;53.246;10.368;2024-03-17T04:51:51;6.83;;;1.70;;
11984;SDS011;6052;53.246;10.368;2024-03-17T04:54:20;6.97;;;1.70;;
11984;SDS011;6052;53.246;10.368;2024-03-17T04:56:49;6.63;;;2.00;;
11984;SDS011;6052;53.246;10.368;2024-03-17T04:59:20;5.63;;;1.40;;
11984;SDS011;6052;53.246;10.368;2024-03-17T05:01:49;8.63;;;1.60;;
11984;SDS011;6052;53.246;10.368;2024-03-17T05:04:18;8.93;;;1.47;;
11984;SDS011;6052;53.246;10.368;2024-03-17T05:06:48;7.73;;;1.30;;
11984;SDS011;6052;53.246;10.368;2024-03-17T05:09:18;5.93;;;1.97;;
11984;SDS011;6052;53.246;10.368;2024-03-17T05:11:47;4.53;;;1.67;;
11984;SDS011;6052;53.246;10.368;2024-03-17T05:14:17;7.20;;;1.37;;
11984;SDS011;6052;53.246;10.368;2024-03-17T05:16:50;6.93;;;1.40;;
11984;SDS011;6052;53.246;10.368;2024-03-17T05:19:19;4.47;;;1.40;;
11984;SDS011;6052;53.246;10.368;2024-03-17T05:21:48;10.23;;;1.97;;
11984;SDS011;6052;53.246;10.368;2024-03-17T05:24:17;5.07;;;1.40;;
11984;SDS011;6052;53.246;10.368;2024-03-17T05:26:46;5.20;;;1.63;;
11984;SDS011;6052;53.246;10.368;2024-03-17T05:29:15;9.37;;;1.37;;
11984;SDS011;6052;53.246;10.368;2024-03-17T05:31:43;7.10;;;1.70;;
11984;SDS011;6052;53.246;10.368;2024-03-17T05:34:15;7.53;;;1.47;;
11984;SDS011;6052;53.246;10.368;2024-03-17T05:36:44;5.13;;;1.70;;
11984;SDS011;6052;53.246;10.368;2024-03-17T05:39:13;2.27;;;1.10;;
11984;SDS011;6052;53.246;10.368;2024-03-17T05:41:42;5.17;;;1.93;;
11984;SDS011;6052;53.246;10.368;2024-03-17T05:44:14;6.00;;;1.77;;
11984;SDS011;6052;53.246;10.368;2024-03-17T05:46:43;3.13;;;1.47;;
11984;SDS011;6052;53.246;10.368;2024-03-17T05:49:14;2.43;;;1.20;;
11984;SDS011;6052;53.246;10.368;2024-03-17T05:51:43;6.67;;;1.37;;
11984;SDS011;6052;53.246;10.368;2024-03-17T05:54:12;5.40;;;1.80;;
11984;SDS011;6052;53.246;10.368;2024-03-17T05:56:40;6.87;;;1.73;;
11984;SDS011;6052;53.246;10.368;2024-03-17T05:59:09;8.60;;;2.10;;
11984;SDS011;6052;53.246;10.368;2024-03-17T06:01:38;3.30;;;1.50;;
11984;SDS011;6052;53.246;10.368;2024-03-17T06:04:07;2.77;;;1.40;;
11984;SDS011;6052;53.246;10.368;2024-03-17T06:06:38;5.70;;;1.50;;
11984;SDS011;6052;53.246;10.368;2024-03-17T06:09:07;3.37;;;1.57;;
11984;SDS011;6052;53.246;10.368;2024-03-17T06:11:36;7.33;;;1.83;;
11984;SDS011;6052;53.246;10.368;2024-03-17T06:14:05;6.67;;;1.47;;
11984;SDS011;6052;53.246;10.368;2024-03-17T06:16:37;3.60;;;1.40;;
11984;SDS011;6052;53.246;10.368;2024-03-17T06:19:06;3.40;;;1.33;;
11984;SDS011;6052;53.246;10.368;2024-03-17T06:21:37;7.47;;;1.70;;
11984;SDS011;6052;53.246;10.368;2024-03-17T06:24:07;5.50;;;1.60;;
11984;SDS011;6052;53.246;10.368;2024-03-17T06:26:36;9.70;;;2.40;;
11984;SDS011;6052;53.246;10.368;2024-03-17T06:29:05;5.27;;;2.23;;
11984;SDS011;6052;53.246;10.368;2024-03-17T06:31:34;5.00;;;1.90;;
11984;SDS011;6052;53.246;10.368;2024-03-17T06:34:03;5.47;;;1.70;;
11984;SDS011;6052;53.246;10.368;2024-03-17T06:36:31;4.13;;;1.60;;
11984;SDS011;6052;53.246;10.368;2024-03-17T06:39:03;5.03;;;1.93;;
11984;SDS011;6052;53.246;10.368;2024-03-17T06:41:31;5.97;;;1.83;;
11984;SDS011;6052;53.246;10.368;2024-03-17T06:44:00;6.73;;;1.73;;
11984;SDS011;6052;53.246;10.368;2024-03-17T06:46:32;5.30;;;1.73;;
11984;SDS011;6052;53.246;10.368;2024-03-17T06:49:00;11.50;;;2.07;;
11984;SDS011;6052;53.246;10.368;2024-03-17T06:51:29;6.07;;;1.40;;
11984;SDS011;6052;53.246;10.368;2024-03-17T06:53:58;5.80;;;1.73;;
11984;SDS011;6052;53.246;10.368;2024-03-17T06:56:29;4.87;;;1.50;;
11984;SDS011;6052;53.246;10.368;2024-03-17T06:58:59;5.83;;;1.50;;
11984;SDS011;6052;53.246;10.368;2024-03-17T07:01:29;6.00;;;2.00;;
11984;SDS011;6052;53.246;10.368;2024-03-17T07:03:58;5.50;;;1.60;;
11984;SDS011;6052;53.246;10.368;2024-03-17T07:06:27;7.10;;;2.10;;
11984;SDS011;6052;53.246;10.368;2024-03-17T07:08:56;7.00;;;1.57;;
11984;SDS011;6052;53.246;10.368;2024-03-17T07:11:25;3.50;;;2.00;;
11984;SDS011;6052;53.246;10.368;2024-03-17T07:13:56;4.70;;;2.03;;
11984;SDS011;6052;53.246;10.368;2024-03-17T07:16:25;4.43;;;1.80;;
11984;SDS011;6052;53.246;10.368;2024-03-17T07:18:54;2.97;;;1.67;;
11984;SDS011;6052;53.246;10.368;2024-03-17T07:21:24;5.27;;;1.87;;
11984;SDS011;6052;53.246;10.368;2024-03-17T07:23:57;5.40;;;1.77;;
11984;SDS011;6052;53.246;10.368;2024-03-17T07:26:29;4.20;;;2.10;;
11984;SDS011;6052;53.246;10.368;2024-03-17T07:29:01;5.43;;;1.90;;
11984;SDS011;6052;53.246;10.368;2024-03-17T07:31:29;4.13;;;2.23;;
11984;SDS011;6052;53.246;10.368;2024-03-17T07:33:58;4.70;;;2.27;;
11984;SDS011;6052;53.246;10.368;2024-03-17T07:36:28;4.30;;;1.83;;
11984;SDS011;6052;53.246;10.368;2024-03-17T07:38:56;3.23;;;1.93;;
11984;SDS011;6052;53.246;10.368;2024-03-17T07:41:26;7.13;;;2.33;;
11984;SDS011;6052;53.246;10.368;2024-03-17T07:43:54;10.23;;;2.13;;
11984;SDS011;6052;53.246;10.368;2024-03-17T07:46:26;6.53;;;2.10;;
11984;SDS011;6052;53.246;10.368;2024-03-17T07:48:55;6.07;;;2.10;;
11984;SDS011;6052;53.246;10.368;2024-03-17T07:51:23;6.83;;;2.27;;
11984;SDS011;6052;53.246;10.368;2024-03-17T07:53:52;6.83;;;2.27;;
11984;SDS011;6052;53.246;10.368;2024-03-17T07:56:21;7.83;;;2.13;;
11984;SDS011;6052;53.246;10.368;2024-03-17T07:58:51;5.00;;;2.17;;
11984;SDS011;6052;53.246;10.368;2024-03-17T08:01:20;10.73;;;2.67;;
11984;SDS011;6052;53.246;10.368;2024-03-17T08:03:51;6.47;;;2.50;;
11984;SDS011;6052;53.246;10.368;2024-03-17T08:06:21;6.47;;;2.57;;
11984;SDS011;6052;53.246;10.368;2024-03-17T08:08:50;4.60;;;2.50;;
11984;SDS011;6052;53.246;10.368;2024-03-17T08:11:20;5.67;;;2.37;;
11984;SDS011;6052;53.246;10.368;2024-03-17T08:13:49;8.83;;;2.53;;
11984;SDS011;6052;53.246;10.368;2024-03-17T08:16:19;5.50;;;2.03;;
11984;SDS011;6052;53.246;10.368;2024-03-17T08:18:51;7.33;;;2.43;;
11984;SDS011;6052;53.246;10.368;2024-03-17T08:21:19;9.93;;;2.43;;
11984;SDS011;6052;53.246;10.368;2024-03-17T08:23:48;3.30;;;1.70;;
11984;SDS011;6052;53.246;10.368;2024-03-17T08:26:17;4.57;;;1.83;;
11984;SDS011;6052;53.246;10.368;2024-03-17T08:28:46;5.43;;;1.73;;
11984;SDS011;6052;53.246;10.368;2024-03-17T08:31:15;5.87;;;2.20;;
11984;SDS011;6052;53.246;10.368;2024-03-17T08:33:44;5.37;;;2.00;;
11984;SDS011;6052;53.246;10.368;2024-03-17T08:36:16;6.97;;;1.63;;
11984;SDS011;6052;53.246;10.368;2024-03-17T08:38:48;3.93;;;1.90;;
11984;SDS011;6052;53.246;10.368;2024-03-17T08:41:17;7.03;;;1.70;;
11984;SDS011;6052;53.246;10.368;2024-03-17T08:43:46;6.43;;;2.13;;
11984;SDS011;6052;53.246;10.368;2024-03-17T08:46:14;2.90;;;1.10;;
11984;SDS011;6052;53.246;10.368;2024-03-17T08:48:44;7.80;;;2.10;;
11984;SDS011;6052;53.246;10.368;2024-03-17T08:51:15;11.40;;;2.33;;
11984;SDS011;6052;53.246;10.368;2024-03-17T08:53:44;7.13;;;1.73;;
11984;SDS011;6052;53.246;10.368;2024-03-17T08:56:13;6.97;;;1.60;;
11984;SDS011;6052;53.246;10.368;2024-03-17T08:58:42;5.77;;;1.53;;
11984;SDS011;6052;53.246;10.368;2024-03-17T09:01:11;4.33;;;1.37;;
11984;SDS011;6052;53.246;10.368;2024-03-17T09:03:43;2.43;;;0.93;;
11984;SDS011;6052;53.246;10.368;2024-03-17T09:06:17;4.90;;;1.77;;
11984;SDS011;6052;53.246;10.368;2024-03-17T09:08:47;5.43;;;1.10;;
11984;SDS011;6052;53.246;10.368;2024-03-17T09:11:17;6.40;;;1.93;;
11984;SDS011;6052;53.246;10.368;2024-03-17T09:13:50;4.63;;;1.00;;
11984;SDS011;6052;53.246;10.368;2024-03-17T09:16:19;6.60;;;1.30;;
11984;SDS011;6052;53.246;10.368;2024-03-17T09:18:48;4.60;;;1.60;;
11984;SDS011;6052;53.246;10.368;2024-03-17T09:21:20;4.47;;;1.80;;
11984;SDS011;6052;53.246;10.368;2024-03-17T09:23:48;6.47;;;1.70;;
11984;SDS011;6052;53.246;10.368;2024-03-17T09:26:18;10.97;;;1.70;;
11984;SDS011;6052;53.246;10.368;2024-03-17T09:28:47;6.23;;;1.20;;
11984;SDS011;6052;53.246;10.368;2024-03-17T09:31:16;5.93;;;1.30;;
11984;SDS011;6052;53.246;10.368;2024-03-17T09:33:45;4.73;;;1.10;;
11984;SDS011;6052;53.246;10.368;2024-03-17T09:36:14;5.73;;;1.00;;
11984;SDS011;6052;53.246;10.368;2024-03-17T09:38:46;6.07;;;1.57;;
11984;SDS011;6052;53.246;10.368;2024-03-17T09:41:17;6.20;;;1.43;;
11984;SDS011;6052;53.246;10.368;2024-03-17T09:43:50;4.97;;;1.60;;
11984;SDS011;6052;53.246;10.368;2024-03-17T09:46:22;3.90;;;1.13;;
11984;SDS011;6052;53.246;10.368;2024-03-17T09:48:51;5.67;;;1.20;;
11984;SDS011;6052;53.246;10.368;2024-03-17T09:51:21;3.47;;;1.00;;
11984;SDS011;6052;53.246;10.368;2024-03-17T09:53:54;2.60;;;0.80;;
11984;SDS011;6052;53.246;10.368;2024-03-17T09:56:23;2.00;;;0.83;;
11984;SDS011;6052;53.246;10.368;2024-03-17T09:58:52;7.00;;;1.17;;
11984;SDS011;6052;53.246;10.368;2024-03-17T10:01:20;2.60;;;0.87;;
11984;SDS011;6052;53.246;10.368;2024-03-17T10:03:50;1.93;;;0.50;;
11984;SDS011;6052;53.246;10.368;2024-03-17T10:06:20;2.50;;;0.87;;
11984;SDS011;6052;53.246;10.368;2024-03-17T10:08:50;2.70;;;1.23;;
11984;SDS011;6052;53.246;10.368;2024-03-17T10:11:23;5.60;;;1.10;;
11984;SDS011;6052;53.246;10.368;2024-03-17T10:13:59;4.10;;;0.87;;
11984;SDS011;6052;53.246;10.368;2024-03-17T10:16:30;3.53;;;1.27;;
11984;SDS011;6052;53.246;10.368;2024-03-17T10:19:10;2.53;;;0.80;;
11984;SDS011;6052;53.246;10.368;2024-03-17T10:21:40;3.37;;;0.93;;
11984;SDS011;6052;53.246;10.368;2024-03-17T10:24:12;1.50;;;0.80;;
11984;SDS011;6052;53.246;10.368;2024-03-17T10:26:42;3.50;;;1.40;;
11984;SDS011;6052;53.246;10.368;2024-03-17T10:29:22;2.43;;;1.00;;
11984;SDS011;6052;53.246;10.368;2024-03-17T10:31:53;4.87;;;1.47;;
11984;SDS011;6052;53.246;10.368;2024-03-17T10:34:23;5.47;;;1.57;;
11984;SDS011;6052;53.246;10.368;2024-03-17T10:37:05;5.50;;;0.93;;
11984;SDS011;6052;53.246;10.368;2024-03-17T10:39:39;4.90;;;1.00;;
11984;SDS011;6052;53.246;10.368;2024-03-17T10:42:09;1.87;;;0.70;;
11984;SDS011;6052;53.246;10.368;2024-03-17T10:44:39;3.77;;;1.87;;
11984;SDS011;6052;53.246;10.368;2024-03-17T10:47:14;3.63;;;1.03;;
11984;SDS011;6052;53.246;10.368;2024-03-17T10:49:49;2.23;;;0.77;;
11984;SDS011;6052;53.246;10.368;2024-03-17T10:52:20;2.87;;;1.00;;
11984;SDS011;6052;53.246;10.368;2024-03-17T10:54:54;2.87;;;0.83;;
11984;SDS011;6052;53.246;10.368;2024-03-17T10:57:23;1.93;;;0.90;;
11984;SDS011;6052;53.246;10.368;2024-03-17T10:59:59;3.40;;;1.20;;
11984;SDS011;6052;53.246;10.368;2024-03-17T11:02:31;7.03;;;1.00;;
11984;SDS011;6052;53.246;10.368;2024-03-17T11:05:02;1.77;;;0.70;;
11984;SDS011;6052;53.246;10.368;2024-03-17T11:07:33;7.80;;;1.20;;
11984;SDS011;6052;53.246;10.368;2024-03-17T11:10:11;3.93;;;1.00;;
11984;SDS011;6052;53.246;10.368;2024-03-17T11:12:44;4.83;;;1.40;;
11984;SDS011;6052;53.246;10.368;2024-03-17T11:21:01;4.83;;;1.10;;
11984;SDS011;6052;53.246;10.368;2024-03-17T11:23:36;3.47;;;1.37;;
11984;SDS011;6052;53.246;10.368;2024-03-17T11:26:08;3.43;;;1.23;;
11984;SDS011;6052;53.246;10.368;2024-03-17T11:28:44;1.97;;;0.60;;
11984;SDS011;6052;53.246;10.368;2024-03-17T11:34:30;4.53;;;1.13;;
11984;SDS011;6052;53.246;10.368;2024-03-17T11:37:05;3.33;;;0.87;;
11984;SDS011;6052;53.246;10.368;2024-03-17T11:39:46;3.67;;;0.90;;
11984;SDS011;6052;53.246;10.368;2024-03-17T11:42:24;3.33;;;1.30;;
11984;SDS011;6052;53.246;10.368;2024-03-17T11:44:58;2.97;;;1.03;;
11984;SDS011;6052;53.246;10.368;2024-03-17T11:47:38;5.03;;;1.10;;
11984;SDS011;6052;53.246;10.368;2024-03-17T11:50:07;5.23;;;1.10;;
11984;SDS011;6052;53.246;10.368;2024-03-17T11:52:38;1.47;;;0.70;;
11984;SDS011;6052;53.246;10.368;2024-03-17T11:55:15;1.85;;;0.70;;
11984;SDS011;6052;53.246;10.368;2024-03-17T11:57:48;2.55;;;0.85;;
11984;SDS011;6052;53.246;10.368;2024-03-17T12:00:21;2.27;;;1.00;;
11984;SDS011;6052;53.246;10.368;2024-03-17T12:02:52;4.60;;;1.10;;
11984;SDS011;6052;53.246;10.368;2024-03-17T12:05:18;1.33;;;0.80;;
11984;SDS011;6052;53.246;10.368;2024-03-17T12:07:47;5.13;;;1.30;;
11984;SDS011;6052;53.246;10.368;2024-03-17T12:10:13;1.85;;;0.95;;
11984;SDS011;6052;53.246;10.368;2024-03-17T12:12:48;4.57;;;0.80;;
11984;SDS011;6052;53.246;10.368;2024-03-17T12:15:16;3.88;;;0.98;;
11984;SDS011;6052;53.246;10.368;2024-03-17T12:17:51;3.70;;;1.10;;
11984;SDS011;6052;53.246;10.368;2024-03-17T12:20:18;3.73;;;1.30;;
11984;SDS011;6052;53.246;10.368;2024-03-17T12:22:47;4.20;;;1.30;;
11984;SDS011;6052;53.246;10.368;2024-03-17T12:25:17;3.80;;;0.93;;
11984;SDS011;6052;53.246;10.368;2024-03-17T12:27:51;7.07;;;1.05;;
11984;SDS011;6052;53.246;10.368;2024-03-17T12:30:17;5.37;;;0.90;;
11984;SDS011;6052;53.246;10.368;2024-03-17T12:32:46;5.10;;;1.00;;
11984;SDS011;6052;53.246;10.368;2024-03-17T12:35:14;2.33;;;1.07;;
11984;SDS011;6052;53.246;10.368;2024-03-17T12:37:44;4.93;;;0.90;;
11984;SDS011;6052;53.246;10.368;2024-03-17T12:40:20;6.00;;;1.10;;
11984;SDS011;6052;53.246;10.368;2024-03-17T12:42:53;2.38;;;1.10;;
11984;SDS011;6052;53.246;10.368;2024-03-17T12:45:20;2.53;;;1.10;;
11984;SDS011;6052;53.246;10.368;2024-03-17T12:47:50;4.03;;;0.97;;
11984;SDS011;6052;53.246;10.368;2024-03-17T12:50:17;1.80;;;0.90;;
11984;SDS011;6052;53.246;10.368;2024-03-17T12:52:53;4.28;;;1.08;;
11984;SDS011;6052;53.246;10.368;2024-03-17T12:55:20;3.30;;;1.42;;
11984;SDS011;6052;53.246;10.368;2024-03-17T12:58:09;2.67;;;0.90;;
11984;SDS011;6052;53.246;10.368;2024-03-17T13:00:56;3.05;;;0.93;;
11984;SDS011;6052;53.246;10.368;2024-03-17T13:03:27;1.98;;;0.68;;
11984;SDS011;6052;53.246;10.368;2024-03-17T13:05:58;4.22;;;1.10;;
11984;SDS011;6052;53.246;10.368;2024-03-17T13:08:28;2.10;;;1.13;;
11984;SDS011;6052;53.246;10.368;2024-03-17T13:10:57;4.15;;;1.08;;
11984;SDS011;6052;53.246;10.368;2024-03-17T13:13:28;4.07;;;0.98;;
11984;SDS011;6052;53.246;10.368;2024-03-17T13:15:57;2.42;;;1.13;;
11984;SDS011;6052;53.246;10.368;2024-03-17T13:18:27;1.90;;;0.80;;
11984;SDS011;6052;53.246;10.368;2024-03-17T13:20:55;2.25;;;0.90;;
11984;SDS011;6052;53.246;10.368;2024-03-17T13:23:25;1.40;;;0.60;;
11984;SDS011;6052;53.246;10.368;2024-03-17T13:25:55;5.37;;;1.23;;
11984;SDS011;6052;53.246;10.368;2024-03-17T13:28:24;4.83;;;1.10;;
11984;SDS011;6052;53.246;10.368;2024-03-17T13:30:55;4.20;;;1.33;;
11984;SDS011;6052;53.246;10.368;2024-03-17T13:33:24;2.85;;;0.88;;
11984;SDS011;6052;53.246;10.368;2024-03-17T13:35:53;2.88;;;0.98;;
11984;SDS011;6052;53.246;10.368;2024-03-17T13:38:21;1.85;;;0.90;;
11984;SDS011;6052;53.246;10.368;2024-03-17T13:40:50;1.50;;;0.90;;
11984;SDS011;6052;53.246;10.368;2024-03-17T13:43:18;2.53;;;0.90;;
11984;SDS011;6052;53.246;10.368;2024-03-17T13:45:47;3.22;;;1.13;;
11984;SDS011;6052;53.246;10.368;2024-03-17T13:48:18;2.83;;;1.10;;
11984;SDS011;6052;53.246;10.368;2024-03-17T13:50:47;2.33;;;0.80;;
11984;SDS011;6052;53.246;10.368;2024-03-17T13:53:15;4.07;;;1.08;;
11984;SDS011;6052;53.246;10.368;2024-03-17T13:55:44;1.15;;;0.70;;
11984;SDS011;6052;53.246;10.368;2024-03-17T13:58:13;4.07;;;1.15;;
11984;SDS011;6052;53.246;10.368;2024-03-17T14:00:41;3.22;;;1.00;;
11984;SDS011;6052;53.246;10.368;2024-03-17T14:03:10;3.35;;;0.95;;
11984;SDS011;6052;53.246;10.368;2024-03-17T14:05:42;4.18;;;1.52;;
11984;SDS011;6052;53.246;10.368;2024-03-17T14:08:11;2.15;;;0.93;;
11984;SDS011;6052;53.246;10.368;2024-03-17T14:10:40;2.72;;;0.90;;
11984;SDS011;6052;53.246;10.368;2024-03-17T14:13:09;3.50;;;0.90;;
11984;SDS011;6052;53.246;10.368;2024-03-17T14:15:38;5.65;;;1.48;;
11984;SDS011;6052;53.246;10.368;2024-03-17T14:18:06;5.05;;;1.40;;
11984;SDS011;6052;53.246;10.368;2024-03-17T14:20:35;5.43;;;1.30;;
11984;SDS011;6052;53.246;10.368;2024-03-17T14:23:06;2.88;;;1.27;;
11984;SDS011;6052;53.246;10.368;2024-03-17T14:25:35;2.92;;;1.05;;
11984;SDS011;6052;53.246;10.368;2024-03-17T14:28:04;2.53;;;1.15;;
11984;SDS011;6052;53.246;10.368;2024-03-17T14:30:33;2.22;;;1.15;;
11984;SDS011;6052;53.246;10.368;2024-03-17T14:33:02;4.45;;;0.90;;
11984;SDS011;6052;53.246;10.368;2024-03-17T14:35:33;4.20;;;1.40;;
11984;SDS011;6052;53.246;10.368;2024-03-17T14:38:02;4.05;;;0.90;;
11984;SDS011;6052;53.246;10.368;2024-03-17T14:40:33;2.25;;;1.00;;
11984;SDS011;6052;53.246;10.368;2024-03-17T14:43:02;4.80;;;1.25;;
11984;SDS011;6052;53.246;10.368;2024-03-17T14:45:30;1.98;;;1.20;;
11984;SDS011;6052;53.246;10.368;2024-03-17T14:48:00;3.92;;;1.13;;
11984;SDS011;6052;53.246;10.368;2024-03-17T14:50:29;4.43;;;1.33;;
11984;SDS011;6052;53.246;10.368;2024-03-17T14:52:57;2.85;;;1.17;;
11984;SDS011;6052;53.246;10.368;2024-03-17T14:55:26;5.40;;;1.65;;
11984;SDS011;6052;53.246;10.368;2024-03-17T14:57:57;5.55;;;1.30;;
11984;SDS011;6052;53.246;10.368;2024-03-17T15:00:28;5.03;;;1.45;;
11984;SDS011;6052;53.246;10.368;2024-03-17T15:02:58;2.92;;;1.50;;
11984;SDS011;6052;53.246;10.368;2024-03-17T15:05:27;1.65;;;1.17;;
11984;SDS011;6052;53.246;10.368;2024-03-17T15:07:55;2.45;;;1.10;;
11984;SDS011;6052;53.246;10.368;2024-03-17T15:10:24;4.18;;;1.13;;
11984;SDS011;6052;53.246;10.368;2024-03-17T15:12:53;6.70;;;1.80;;